Time;durP1;ratioP1;P1;durP2;ratioP2;P2;SDS_P1;SDS_P2;PMS_P1;PMS_P2;Temp;Humidity;BMP_temperature;BMP_pressure;BME280_temperature;BME280_humidity;BME280_pressure;Samples;Min_cycle;Max_cycle;Signal;HPM_P1;HPM_P2
2022/03/15 00:02:03;;;;;;;;;;;;;;;-145.06;0.00;60892.56;4679483;29;19916;-89
2022/03/15 00:04:42;;;;;;;;;;;;;;;-145.06;0.00;60892.56;4677345;29;20348;-90
2022/03/15 00:07:22;;;;;;;;;;;;;;;-145.06;0.00;60892.56;4669171;29;19913;-90
2022/03/15 00:10:01;;;;;;;;;;;;;;;-145.06;0.00;60892.56;4672402;29;19921;-90
2022/03/15 00:12:40;;;;;;;;;;;;;;;-145.06;0.00;60892.56;4674863;29;20261;-91
2022/03/15 00:15:20;;;;;;;;;;;;;;;-145.06;0.00;60892.56;4667118;29;19916;-90
2022/03/15 00:17:59;;;;;;;;;;;;;;;-145.06;0.00;60892.56;4690205;29;19912;-91
2022/03/15 00:20:38;;;;;;;;;;;;;;;-145.06;0.00;60892.56;4673644;29;19919;-90
2022/03/15 00:23:17;;;;;;;;;;;;;;;-145.06;0.00;60892.56;4681664;29;20004;-91
2022/03/15 00:25:57;;;;;;;;;;;;;;;-145.06;0.00;60892.56;4672491;29;20105;-89
2022/03/15 00:28:36;;;;;;;;;;;;;;;-145.06;0.00;60892.56;4677345;29;19916;-90
2022/03/15 00:31:15;;;;;;;;;;;;;;;-145.06;0.00;60892.56;4676568;29;19917;-89
2022/03/15 00:33:54;;;;;;;;;;;;;;;-145.06;0.00;60892.56;4676635;29;20359;-91
2022/03/15 00:36:35;;;;;;;;;;;;;;;-145.06;0.00;60892.56;4661113;29;19913;-90
2022/03/15 00:39:16;;;;;;;;;;;;;;;-145.06;0.00;60892.56;4666210;29;19912;-90
2022/03/15 00:41:55;;;;;;;;;;;;;;;-145.06;0.00;60892.56;4677021;29;20284;-91
2022/03/15 00:44:34;;;;;;;;;;;;;;;-145.06;0.00;60892.56;4679562;29;19960;-89
2022/03/15 00:47:13;;;;;;;;;;;;;;;-145.06;0.00;60892.56;4674708;29;20265;-90
2022/03/15 00:49:52;;;;;;;;;;;;;;;-145.06;0.00;60892.56;4676261;29;20396;-91
2022/03/15 00:52:31;;;;;;;;;;;;;;;-145.06;0.00;60892.56;4676315;29;19931;-90
2022/03/15 00:55:10;;;;;;;;;;;;;;;-145.06;0.00;60892.56;4669558;29;19912;-91
2022/03/15 00:57:49;;;;;;;;;;;;;;;-145.06;0.00;60892.56;4671319;29;19912;-90
2022/03/15 01:00:31;;;;;;;;;;;;;;;-145.06;0.00;60892.56;4678919;29;20003;-89
2022/03/15 01:03:10;;;;;;;;;;;;;;;-145.06;0.00;60892.56;4658015;29;19912;-90
2022/03/15 01:05:50;;;;;;;;;;;;;;;-145.06;0.00;60892.56;4674978;29;19916;-90
2022/03/15 01:08:29;;;;;;;;;;;;;;;-145.06;0.00;60892.56;4667909;29;19916;-90
2022/03/15 01:11:08;;;;;;;;;;;;;;;-145.06;0.00;60892.56;4666846;29;19921;-90
2022/03/15 01:13:47;;;;;;;;;;;;;;;-145.06;0.00;60892.56;4675739;29;19924;-91
2022/03/15 01:16:26;;;;;;;;;;;;;;;-145.06;0.00;60892.56;4667104;29;19924;-90
2022/03/15 01:19:07;;;;;;;;;;;;;;;-145.06;0.00;60892.56;4680343;29;19916;-89
2022/03/15 01:21:46;;;;;;;;;;;;;;;-145.06;0.00;60892.56;4666212;29;20000;-90
2022/03/15 01:24:25;;;;;;;;;;;;;;;-145.06;0.00;60892.56;4659722;29;19995;-90
2022/03/15 01:27:04;;;;;;;;;;;;;;;-145.06;0.00;60892.56;4672130;29;19939;-90
2022/03/15 01:29:43;;;;;;;;;;;;;;;-145.06;0.00;60892.56;4664768;29;19920;-90
2022/03/15 01:32:22;;;;;;;;;;;;;;;-145.06;0.00;60892.56;4676902;29;19916;-90
2022/03/15 01:35:01;;;;;;;;;;;;;;;-145.06;0.00;60892.56;4673256;29;19913;-91
2022/03/15 01:37:40;;;;;;;;;;;;;;;-145.06;0.00;60892.56;4671785;29;19940;-91
2022/03/15 01:40:19;;;;;;;;;;;;;;;-145.06;0.00;60892.56;4666575;29;19967;-90
2022/03/15 01:42:58;;;;;;;;;;;;;;;-145.06;0.00;60892.56;4679483;29;19912;-90
2022/03/15 01:45:38;;;;;;;;;;;;;;;-145.06;0.00;60892.56;4680388;29;19920;-90
2022/03/15 01:48:17;;;;;;;;;;;;;;;-145.06;0.00;60892.56;4675080;29;19920;-91
2022/03/15 01:50:56;;;;;;;;;;;;;;;-145.06;0.00;60892.56;4678324;29;20362;-90
2022/03/15 01:53:35;;;;;;;;;;;;;;;-145.06;0.00;60892.56;4662081;29;19916;-90
2022/03/15 01:56:14;;;;;;;;;;;;;;;-145.06;0.00;60892.56;4662385;29;19917;-91
2022/03/15 01:58:53;;;;;;;;;;;;;;;-145.06;0.00;60892.56;4673374;29;20019;-90
2022/03/15 02:01:32;;;;;;;;;;;;;;;-145.06;0.00;60892.56;4662087;29;19912;-90
2022/03/15 02:04:12;;;;;;;;;;;;;;;-145.06;0.00;60892.56;4657766;29;19917;-89
2022/03/15 02:07:00;;;;;;;;;;;;;;;-145.06;0.00;60892.56;4663616;29;19916;-90
2022/03/15 02:09:40;;;;;;;;;;;;;;;-145.06;0.00;60892.56;4671947;29;19924;-89
2022/03/15 02:12:18;;;;;;;;;;;;;;;-145.06;0.00;60892.56;4660783;29;19917;-90
2022/03/15 02:15:01;;;;;;;;;;;;;;;-145.06;0.00;60892.56;4673349;29;19916;-90
2022/03/15 02:17:40;;;;;;;;;;;;;;;-145.06;0.00;60892.56;4673763;29;19916;-91
2022/03/15 02:20:19;;;;;;;;;;;;;;;-145.06;0.00;60892.56;4671343;29;19920;-89
2022/03/15 02:22:58;;;;;;;;;;;;;;;-145.06;0.00;60892.56;4674779;29;19947;-89
2022/03/15 02:25:37;;;;;;;;;;;;;;;-145.06;0.00;60892.56;4676947;29;19920;-90
2022/03/15 02:28:16;;;;;;;;;;;;;;;-145.06;0.00;60892.56;4677935;29;19912;-89
2022/03/15 02:30:55;;;;;;;;;;;;;;;-145.06;0.00;60892.56;4678863;29;19939;-89
2022/03/15 02:33:34;;;;;;;;;;;;;;;-145.06;0.00;60892.56;4673007;29;19913;-89
2022/03/15 02:36:15;;;;;;;;;;;;;;;-145.06;0.00;60892.56;4689638;29;19912;-90
2022/03/15 02:38:54;;;;;;;;;;;;;;;-145.06;0.00;60892.56;4679196;29;20415;-90
2022/03/15 02:41:33;;;;;;;;;;;;;;;-145.06;0.00;60892.56;4671893;29;19913;-90
2022/03/15 02:44:12;;;;;;;;;;;;;;;-145.06;0.00;60892.56;4695437;29;20267;-90
2022/03/15 02:46:51;;;;;;;;;;;;;;;-145.06;0.00;60892.56;4704692;29;19924;-90
2022/03/15 02:49:30;;;;;;;;;;;;;;;-145.06;0.00;60892.56;4696696;29;19916;-90
2022/03/15 02:52:10;;;;;;;;;;;;;;;-145.06;0.00;60892.56;4691752;29;19962;-89
2022/03/15 02:54:48;;;;;;;;;;;;;;;-145.06;0.00;60892.56;4677923;29;19916;-91
2022/03/15 02:57:28;;;;;;;;;;;;;;;-145.06;0.00;60892.56;4671209;29;19912;-91
2022/03/15 03:00:07;;;;;;;;;;;;;;;-145.06;0.00;60892.56;4669983;29;19920;-90
2022/03/15 03:02:46;;;;;;;;;;;;;;;-145.06;0.00;60892.56;4681225;29;20276;-89
2022/03/15 03:05:26;;;;;;;;;;;;;;;-145.06;0.00;60892.56;4683452;29;19916;-90
2022/03/15 03:08:05;;;;;;;;;;;;;;;-145.06;0.00;60892.56;4672477;29;19917;-90
2022/03/15 03:10:44;;;;;;;;;;;;;;;-145.06;0.00;60892.56;4668437;29;19963;-90
2022/03/15 03:13:26;;;;;;;;;;;;;;;-145.06;0.00;60892.56;4678399;29;19916;-89
2022/03/15 03:16:06;;;;;;;;;;;;;;;-145.06;0.00;60892.56;4677962;29;19920;-90
2022/03/15 03:18:45;;;;;;;;;;;;;;;-145.06;0.00;60892.56;4677320;29;19917;-88
2022/03/15 03:21:25;;;;;;;;;;;;;;;-145.06;0.00;60892.56;4669867;29;19916;-90
2022/03/15 03:24:06;;;;;;;;;;;;;;;-145.06;0.00;60892.56;4677518;29;19916;-89
2022/03/15 03:26:45;;;;;;;;;;;;;;;-145.06;0.00;60892.56;4679871;29;20268;-90
2022/03/15 03:29:25;;;;;;;;;;;;;;;-145.06;0.00;60892.56;4685695;29;19917;-90
2022/03/15 03:32:05;;;;;;;;;;;;;;;-145.06;0.00;60892.56;4685011;29;19920;-90
2022/03/15 03:34:44;;;;;;;;;;;;;;;-145.06;0.00;60892.56;4676616;29;20355;-89
2022/03/15 03:37:24;;;;;;;;;;;;;;;-145.06;0.00;60892.56;4683499;29;19912;-90
2022/03/15 03:40:09;;;;;;;;;;;;;;;-145.06;0.00;60892.56;4676590;29;19912;-90
2022/03/15 03:42:49;;;;;;;;;;;;;;;-145.06;0.00;60892.56;4669719;29;19916;-90
2022/03/15 03:45:28;;;;;;;;;;;;;;;-145.06;0.00;60892.56;4658860;29;19917;-90
2022/03/15 03:48:07;;;;;;;;;;;;;;;-145.06;0.00;60892.56;4674449;29;19960;-89
2022/03/15 03:50:46;;;;;;;;;;;;;;;-145.06;0.00;60892.56;4675207;29;19916;-90
2022/03/15 03:53:25;;;;;;;;;;;;;;;-145.06;0.00;60892.56;4674503;29;19955;-92
2022/03/15 03:56:04;;;;;;;;;;;;;;;-145.06;0.00;60892.56;4667606;29;19912;-90
2022/03/15 03:58:43;;;;;;;;;;;;;;;-145.06;0.00;60892.56;4675305;29;19912;-89
2022/03/15 04:01:22;;;;;;;;;;;;;;;-145.06;0.00;60892.56;4658867;29;20277;-90
2022/03/15 04:04:04;;;;;;;;;;;;;;;-145.06;0.00;60892.56;4665580;29;19912;-89
2022/03/15 04:06:43;;;;;;;;;;;;;;;-145.06;0.00;60892.56;4659195;29;19913;-90
2022/03/15 04:09:23;;;;;;;;;;;;;;;-145.06;0.00;60892.56;4668401;29;20375;-89
2022/03/15 04:12:05;;;;;;;;;;;;;;;-145.06;0.00;60892.56;4674005;29;19917;-90
2022/03/15 04:14:45;;;;;;;;;;;;;;;-145.06;0.00;60892.56;4676005;29;20531;-91
2022/03/15 04:17:24;;;;;;;;;;;;;;;-145.06;0.00;60892.56;4666159;29;19917;-89
2022/03/15 04:20:03;;;;;;;;;;;;;;;-145.06;0.00;60892.56;4682104;29;19991;-90
2022/03/15 04:22:43;;;;;;;;;;;;;;;-145.06;0.00;60892.56;4669122;29;20370;-89
2022/03/15 04:25:22;;;;;;;;;;;;;;;-145.06;0.00;60892.56;4676439;29;20331;-90
2022/03/15 04:28:02;;;;;;;;;;;;;;;-145.06;0.00;60892.56;4676440;29;19917;-89
2022/03/15 04:30:40;;;;;;;;;;;;;;;-145.06;0.00;60892.56;4681721;29;19917;-89
2022/03/15 04:33:19;;;;;;;;;;;;;;;-145.06;0.00;60892.56;4671487;29;19916;-88
2022/03/15 04:35:58;;;;;;;;;;;;;;;-145.06;0.00;60892.56;4667697;29;20336;-89
2022/03/15 04:38:37;;;;;;;;;;;;;;;-145.06;0.00;60892.56;4670976;29;19912;-89
2022/03/15 04:41:16;;;;;;;;;;;;;;;-145.06;0.00;60892.56;4667090;29;19921;-90
2022/03/15 04:43:56;;;;;;;;;;;;;;;-145.06;0.00;60892.56;4675124;29;20469;-89
2022/03/15 04:46:35;;;;;;;;;;;;;;;-145.06;0.00;60892.56;4675129;29;19916;-89
2022/03/15 04:49:14;;;;;;;;;;;;;;;-145.06;0.00;60892.56;4668099;29;19917;-89
2022/03/15 04:51:54;;;;;;;;;;;;;;;-145.06;0.00;60892.56;4660674;29;19925;-91
2022/03/15 04:54:36;;;;;;;;;;;;;;;-145.06;0.00;60892.56;4674727;29;19916;-92
2022/03/15 04:57:15;;;;;;;;;;;;;;;-145.06;0.00;60892.56;4670925;29;19921;-90
2022/03/15 04:59:53;;;;;;;;;;;;;;;-145.06;0.00;60892.56;4663546;29;19916;-90
2022/03/15 05:02:34;;;;;;;;;;;;;;;-145.06;0.00;60892.56;4684327;29;20248;-88
2022/03/15 05:05:13;;;;;;;;;;;;;;;-145.06;0.00;60892.56;4681326;29;19916;-89
2022/03/15 05:07:52;;;;;;;;;;;;;;;-145.06;0.00;60892.56;4684150;29;20269;-92
2022/03/15 05:13:29;;;;;;;;;;;;;;;-145.06;0.00;60892.56;4679797;29;19920;-92
2022/03/15 05:16:13;;;;;;;;;;;;;;;-145.06;0.00;60892.56;4671820;29;19960;-91
2022/03/15 05:18:53;;;;;;;;;;;;;;;-145.06;0.00;60892.56;4668220;29;19920;-91
2022/03/15 05:21:32;;;;;;;;;;;;;;;-145.06;0.00;60892.56;4673220;29;20356;-92
2022/03/15 05:24:11;;;;;;;;;;;;;;;-145.06;0.00;60892.56;4660633;29;19917;-91
2022/03/15 05:26:50;;;;;;;;;;;;;;;-145.06;0.00;60892.56;4663462;29;19920;-90
2022/03/15 05:29:29;;;;;;;;;;;;;;;-145.06;0.00;60892.56;4687484;29;19916;-90
2022/03/15 05:32:08;;;;;;;;;;;;;;;-145.06;0.00;60892.56;4676194;29;19920;-90
2022/03/15 05:34:47;;;;;;;;;;;;;;;-145.06;0.00;60892.56;4674626;29;19947;-92
2022/03/15 05:37:26;;;;;;;;;;;;;;;-145.06;0.00;60892.56;4656786;29;20341;-91
2022/03/15 05:40:06;;;;;;;;;;;;;;;-145.06;0.00;60892.56;4668670;29;19917;-91
2022/03/15 05:42:45;;;;;;;;;;;;;;;-145.06;0.00;60892.56;4672162;29;19917;-92
2022/03/15 05:45:25;;;;;;;;;;;;;;;-145.06;0.00;60892.56;4656877;29;19917;-92
2022/03/15 05:48:04;;;;;;;;;;;;;;;-145.06;0.00;60892.56;4672252;29;19912;-89
2022/03/15 05:50:43;;;;;;;;;;;;;;;-145.06;0.00;60892.56;4673672;29;19921;-92
2022/03/15 05:53:22;;;;;;;;;;;;;;;-145.06;0.00;60892.56;4664651;29;20261;-90
2022/03/15 05:56:01;;;;;;;;;;;;;;;-145.06;0.00;60892.56;4672993;29;19952;-90
2022/03/15 05:58:42;;;;;;;;;;;;;;;-145.06;0.00;60892.56;4667873;29;19913;-91
2022/03/15 06:01:21;;;;;;;;;;;;;;;-145.06;0.00;60892.56;4688536;29;19916;-92
2022/03/15 06:03:59;;;;;;;;;;;;;;;-145.06;0.00;60892.56;4687142;29;19908;-91
2022/03/15 06:06:38;;;;;;;;;;;;;;;-145.06;0.00;60892.56;4671329;29;20392;-91
2022/03/15 06:09:17;;;;;;;;;;;;;;;-145.06;0.00;60892.56;4684584;29;19956;-92
2022/03/15 06:11:57;;;;;;;;;;;;;;;-145.06;0.00;60892.56;4690962;29;19920;-91
2022/03/15 06:14:36;;;;;;;;;;;;;;;-145.06;0.00;60892.56;4666497;29;19912;-93
2022/03/15 06:17:15;;;;;;;;;;;;;;;-145.06;0.00;60892.56;4669766;29;19992;-92
2022/03/15 06:19:54;;;;;;;;;;;;;;;-145.06;0.00;60892.56;4669489;29;19912;-91
2022/03/15 06:22:33;;;;;;;;;;;;;;;-145.06;0.00;60892.56;4673017;29;20340;-91
2022/03/15 06:25:12;;;;;;;;;;;;;;;-145.06;0.00;60892.56;4681909;29;19920;-92
2022/03/15 06:27:51;;;;;;;;;;;;;;;-145.06;0.00;60892.56;4682861;29;20112;-91
2022/03/15 06:30:30;;;;;;;;;;;;;;;-145.06;0.00;60892.56;4681261;29;19969;-92
2022/03/15 06:33:09;;;;;;;;;;;;;;;-145.06;0.00;60892.56;4665207;29;20268;-91
2022/03/15 06:35:48;;;;;;;;;;;;;;;-145.06;0.00;60892.56;4672275;29;19917;-91
2022/03/15 06:38:27;;;;;;;;;;;;;;;-145.06;0.00;60892.56;4674948;29;19916;-90
2022/03/15 06:41:07;;;;;;;;;;;;;;;-145.06;0.00;60892.56;4671056;29;19916;-91
2022/03/15 06:43:45;;;;;;;;;;;;;;;-145.06;0.00;60892.56;4676531;29;19920;-91
2022/03/15 06:46:24;;;;;;;;;;;;;;;-145.06;0.00;60892.56;4665686;29;19912;-91
2022/03/15 06:49:04;;;;;;;;;;;;;;;-145.06;0.00;60892.56;4670432;29;20365;-92
2022/03/15 06:51:43;;;;;;;;;;;;;;;-145.06;0.00;60892.56;4669771;29;20367;-91
2022/03/15 06:54:22;;;;;;;;;;;;;;;-145.06;0.00;60892.56;4673621;29;19916;-92
2022/03/15 06:57:01;;;;;;;;;;;;;;;-145.06;0.00;60892.56;4664586;29;19912;-92
2022/03/15 06:59:40;;;;;;;;;;;;;;;-145.06;0.00;60892.56;4680210;29;19917;-92
2022/03/15 07:02:19;;;;;;;;;;;;;;;-145.06;0.00;60892.56;4673962;29;19912;-91
2022/03/15 07:04:58;;;;;;;;;;;;;;;-145.06;0.00;60892.56;4676716;29;19916;-92
2022/03/15 07:07:37;;;;;;;;;;;;;;;-145.06;0.00;60892.56;4665874;29;20006;-91
2022/03/15 07:10:19;;;;;;;;;;;;;;;-145.06;0.00;60892.56;4680741;29;20067;-92
2022/03/15 07:12:58;;;;;;;;;;;;;;;-145.06;0.00;60892.56;4676421;29;19915;-92
2022/03/15 07:15:37;;;;;;;;;;;;;;;-145.06;0.00;60892.56;4679368;29;19963;-92
2022/03/15 07:18:18;;;;;;;;;;;;;;;-145.06;0.00;60892.56;4677784;29;19916;-91
2022/03/15 07:20:57;;;;;;;;;;;;;;;-145.06;0.00;60892.56;4678826;29;19921;-91
2022/03/15 07:23:36;;;;;;;;;;;;;;;-145.06;0.00;60892.56;4673691;29;19917;-92
2022/03/15 07:26:16;;;;;;;;;;;;;;;-145.06;0.00;60892.56;4673603;29;19916;-91
2022/03/15 07:28:55;;;;;;;;;;;;;;;-145.06;0.00;60892.56;4676675;29;19916;-91
2022/03/15 07:31:34;;;;;;;;;;;;;;;-145.06;0.00;60892.56;4672647;29;19916;-91
2022/03/15 07:34:13;;;;;;;;;;;;;;;-145.06;0.00;60892.56;4674586;29;19916;-91
2022/03/15 07:36:52;;;;;;;;;;;;;;;-145.06;0.00;60892.56;4676963;29;19916;-91
2022/03/15 07:39:31;;;;;;;;;;;;;;;-145.06;0.00;60892.56;4674543;29;19967;-91
2022/03/15 07:42:10;;;;;;;;;;;;;;;-145.06;0.00;60892.56;4669014;29;20428;-91
2022/03/15 07:44:49;;;;;;;;;;;;;;;-145.06;0.00;60892.56;4666854;29;19917;-91
2022/03/15 07:47:28;;;;;;;;;;;;;;;-145.06;0.00;60892.56;4663612;29;19917;-89
2022/03/15 07:50:07;;;;;;;;;;;;;;;-145.06;0.00;60892.56;4666279;29;19928;-89
2022/03/15 07:52:47;;;;;;;;;;;;;;;-145.06;0.00;60892.56;4661623;29;19917;-89
2022/03/15 07:55:26;;;;;;;;;;;;;;;-145.06;0.00;60892.56;4675290;29;19916;-89
2022/03/15 07:58:05;;;;;;;;;;;;;;;-145.06;0.00;60892.56;4668740;29;20538;-89
2022/03/15 08:00:46;;;;;;;;;;;;;;;-145.06;0.00;60892.56;4668417;29;19917;-88
2022/03/15 08:03:25;;;;;;;;;;;;;;;-145.06;0.00;60892.56;4678311;29;20364;-88
2022/03/15 08:06:04;;;;;;;;;;;;;;;-145.06;0.00;60892.56;4660855;29;19916;-89
2022/03/15 08:08:43;;;;;;;;;;;;;;;-145.06;0.00;60892.56;4672353;29;19967;-90
2022/03/15 08:11:23;;;;;;;;;;;;;;;-145.06;0.00;60892.56;4664647;29;19921;-90
2022/03/15 08:14:02;;;;;;;;;;;;;;;-145.06;0.00;60892.56;4661100;29;19967;-89
2022/03/15 08:16:40;;;;;;;;;;;;;;;-145.06;0.00;60892.56;4670552;29;19951;-90
2022/03/15 08:19:20;;;;;;;;;;;;;;;-145.06;0.00;60892.56;4666241;29;20369;-89
2022/03/15 08:22:02;;;;;;;;;;;;;;;-145.06;0.00;60892.56;4671695;29;19920;-89
2022/03/15 08:24:41;;;;;;;;;;;;;;;-145.06;0.00;60892.56;4668301;29;19917;-89
2022/03/15 08:27:19;;;;;;;;;;;;;;;-145.06;0.00;60892.56;4675858;29;20269;-89
2022/03/15 08:29:58;;;;;;;;;;;;;;;-145.06;0.00;60892.56;4664277;29;19920;-89
2022/03/15 08:32:37;;;;;;;;;;;;;;;-145.06;0.00;60892.56;4682436;29;19920;-89
2022/03/15 08:35:16;;;;;;;;;;;;;;;-145.06;0.00;60892.56;4665860;29;19920;-89
2022/03/15 08:37:55;;;;;;;;;;;;;;;-145.06;0.00;60892.56;4657385;29;19960;-89
2022/03/15 08:40:34;;;;;;;;;;;;;;;-145.06;0.00;60892.56;4661241;29;19916;-88
2022/03/15 08:43:13;;;;;;;;;;;;;;;-145.06;0.00;60892.56;4670535;29;19921;-87
2022/03/15 08:45:53;;;;;;;;;;;;;;;-145.06;0.00;60892.56;4661571;29;19935;-89
2022/03/15 08:48:33;;;;;;;;;;;;;;;-145.06;0.00;60892.56;4672650;29;19916;-88
2022/03/15 08:51:12;;;;;;;;;;;;;;;-145.06;0.00;60892.56;4678951;29;19924;-88
2022/03/15 08:53:51;;;;;;;;;;;;;;;-145.06;0.00;60892.56;4680264;29;19920;-88
2022/03/15 08:56:31;;;;;;;;;;;;;;;-145.06;0.00;60892.56;4669313;29;19924;-89
2022/03/15 08:59:12;;;;;;;;;;;;;;;-145.06;0.00;60892.56;4687646;29;19912;-89
2022/03/15 09:01:52;;;;;;;;;;;;;;;-145.06;0.00;60892.56;4656736;29;19917;-89
2022/03/15 09:04:31;;;;;;;;;;;;;;;-145.06;0.00;60892.56;4672744;29;19920;-89
2022/03/15 09:07:10;;;;;;;;;;;;;;;-145.06;0.00;60892.56;4665776;29;19913;-88
2022/03/15 09:09:49;;;;;;;;;;;;;;;-145.06;0.00;60892.56;4665197;29;19916;-89
2022/03/15 09:12:28;;;;;;;;;;;;;;;-145.06;0.00;60892.56;4673520;29;19913;-89
2022/03/15 09:15:07;;;;;;;;;;;;;;;9.09;0.00;60892.56;4671105;29;19979;-89
2022/03/15 09:17:46;;;;;;;;;;;;;;;9.10;0.00;60892.56;4688913;29;19940;-89
2022/03/15 09:20:26;;;;;;;;;;;;;;;21.08;0.00;60892.56;4677954;29;19959;-89
2022/03/15 09:23:06;;;;;;;;;;;;;;;187.52;0.00;60892.56;4663603;29;19916;-87
2022/03/15 09:25:44;;;;;;;;;;;;;;;187.52;0.00;60892.56;4659107;29;19916;-88
2022/03/15 09:28:23;;;;;;;;;;;;;;;9.38;0.00;60892.56;4666479;29;19916;-88
2022/03/15 09:31:03;;;;;;;;;;;;;;;187.52;0.00;60892.56;4661212;29;19924;-88
2022/03/15 09:33:43;;;;;;;;;;;;;;;-145.06;0.00;60892.56;4681342;29;19916;-89
2022/03/15 09:36:23;;;;;;;;;;;;;;;-145.06;0.00;60892.56;4682096;29;19912;-90
2022/03/15 09:39:05;;;;;;;;;;;;;;;-145.06;0.00;60892.56;4667261;29;19959;-88
2022/03/15 09:41:48;;;;;;;;;;;;;;;-145.06;0.00;60892.56;4654246;29;19913;-90
2022/03/15 09:44:28;;;;;;;;;;;;;;;-145.06;0.00;60892.56;4665927;29;19916;-88
2022/03/15 09:47:07;;;;;;;;;;;;;;;-145.06;0.00;60892.56;4672734;29;19912;-89
2022/03/15 09:49:46;;;;;;;;;;;;;;;-145.06;0.00;60892.56;4654664;29;19913;-88
2022/03/15 09:52:27;;;;;;;;;;;;;;;-145.06;0.00;60892.56;4673265;29;20372;-88
2022/03/15 09:55:06;;;;;;;;;;;;;;;-145.06;0.00;60892.56;4676280;29;19920;-90
2022/03/15 09:57:45;;;;;;;;;;;;;;;-145.06;0.00;60892.56;4669237;29;19912;-90
2022/03/15 10:00:24;;;;;;;;;;;;;;;-145.06;0.00;60892.56;4671760;29;19912;-89
2022/03/15 10:03:03;;;;;;;;;;;;;;;-145.06;0.00;60892.56;4671348;29;19912;-89
2022/03/15 10:05:42;;;;;;;;;;;;;;;-145.06;0.00;60892.56;4667131;29;19912;-89
2022/03/15 10:08:21;;;;;;;;;;;;;;;-145.06;0.00;60892.56;4676211;29;19913;-89
2022/03/15 10:11:00;;;;;;;;;;;;;;;-145.06;0.00;60892.56;4670750;29;19917;-87
2022/03/15 10:13:40;;;;;;;;;;;;;;;-145.06;0.00;60892.56;4670329;29;19947;-89
2022/03/15 10:16:21;;;;;;;;;;;;;;;-145.06;0.00;60892.56;4675654;29;19916;-89
2022/03/15 10:19:00;;;;;;;;;;;;;;;-145.06;0.00;60892.56;4672130;29;19912;-89
2022/03/15 10:21:40;;;;;;;;;;;;;;;-145.06;0.00;60892.56;4662149;29;20504;-89
2022/03/15 10:24:19;;;;;;;;;;;;;;;-145.06;0.00;60892.56;4670429;29;19916;-88
2022/03/15 10:26:59;;;;;;;;;;;;;;;-145.06;0.00;60892.56;4668141;29;19955;-89
2022/03/15 10:29:39;;;;;;;;;;;;;;;-145.06;0.00;60892.56;4654367;29;20277;-89
2022/03/15 10:32:18;;;;;;;;;;;;;;;-145.06;0.00;60892.56;4683776;29;19917;-88
2022/03/15 10:35:08;;;;;;;;;;;;;;;-145.06;0.00;60892.56;4681717;29;19916;-90
2022/03/15 10:37:48;;;;;;;;;;;;;;;-145.06;0.00;60892.56;4681904;29;19921;-88
2022/03/15 10:40:34;;;;;;;;;;;;;;;-145.06;0.00;60892.56;4670913;29;19917;-88
2022/03/15 10:43:13;;;;;;;;;;;;;;;-145.06;0.00;60892.56;4679604;29;19959;-88
2022/03/15 10:45:57;;;;;;;;;;;;;;;-145.06;0.00;60892.56;4670432;29;19920;-88
2022/03/15 10:48:37;;;;;;;;;;;;;;;-145.06;0.00;60892.56;4665273;29;19912;-89
2022/03/15 10:51:17;;;;;;;;;;;;;;;-145.06;0.00;60892.56;4681939;29;20143;-88
2022/03/15 10:54:00;;;;;;;;;;;;;;;-145.06;0.00;60892.56;4678933;29;19912;-89
2022/03/15 10:56:40;;;;;;;;;;;;;;;-145.06;0.00;60892.56;4668893;29;19917;-89
2022/03/15 10:59:21;;;;;;;;;;;;;;;-145.06;0.00;60892.56;4680076;29;19951;-88
2022/03/15 11:02:00;;;;;;;;;;;;;;;-145.06;0.00;60892.56;4668530;29;19913;-88
2022/03/15 11:04:47;;;;;;;;;;;;;;;-145.06;0.00;60892.56;4670577;29;19916;-88
2022/03/15 11:07:36;;;;;;;;;;;;;;;-145.06;0.00;60892.56;4674851;29;19916;-88
2022/03/15 11:10:14;;;;;;;;;;;;;;;-145.06;0.00;60892.56;4670627;29;19920;-88
2022/03/15 11:12:56;;;;;;;;;;;;;;;-145.06;0.00;60892.56;4680133;29;19951;-88
2022/03/15 11:15:46;;;;;;;;;;;;;;;-145.06;0.00;60892.56;4674892;29;20269;-89
2022/03/15 11:18:26;;;;;;;;;;;;;;;-145.06;0.00;60892.56;4674569;29;19952;-89
2022/03/15 11:21:05;;;;;;;;;;;;;;;-145.06;0.00;60892.56;4672504;29;19912;-88
2022/03/15 11:23:45;;;;;;;;;;;;;;;-145.06;0.00;60892.56;4672168;29;19913;-87
2022/03/15 11:26:26;;;;;;;;;;;;;;;10.52;0.00;60892.56;4661185;29;19913;-87
2022/03/15 11:29:05;;;;;;;;;;;;;;;187.52;0.00;60892.56;4676046;29;19912;-88
2022/03/15 11:31:45;;;;;;;;;;;;;;;-145.06;0.00;60892.56;4671836;29;19959;-87
2022/03/15 11:34:24;;;;;;;;;;;;;;;-145.06;0.00;60892.56;4676258;29;19912;-88
2022/03/15 11:37:04;;;;;;;;;;;;;;;-145.06;0.00;60892.56;4684451;29;20410;-87
2022/03/15 11:39:42;;;;;;;;;;;;;;;-145.06;0.00;60892.56;4670412;29;20261;-86
2022/03/15 11:42:21;;;;;;;;;;;;;;;-145.06;0.00;60892.56;4670734;29;19913;-87
2022/03/15 11:45:27;;;;;;;;;;;;;;;-145.06;0.00;60892.56;4674316;29;19921;-87
2022/03/15 11:48:06;;;;;;;;;;;;;;;-145.06;0.00;60892.56;4669234;29;19912;-87
2022/03/15 11:50:54;;;;;;;;;;;;;;;-145.06;0.00;60892.56;4666706;29;19921;-88
2022/03/15 11:53:52;;;;;;;;;;;;;;;-145.06;0.00;60892.56;4666356;29;19935;-87
2022/03/15 11:56:38;;;;;;;;;;;;;;;-145.06;0.00;60892.56;4657643;29;19916;-87
2022/03/15 11:59:17;;;;;;;;;;;;;;;-145.06;0.00;60892.56;4656588;29;19917;-89
2022/03/15 12:02:01;;;;;;;;;;;;;;;-145.06;0.00;60892.56;4655488;29;19913;-87
2022/03/15 12:04:44;;;;;;;;;;;;;;;-145.06;0.00;60892.56;4671158;29;19913;-86
2022/03/15 12:07:33;;;;;;;;;;;;;;;-145.06;0.00;60892.56;4681162;29;19916;-88
2022/03/15 12:10:28;;;;;;;;;;;;;;;-145.06;0.00;60892.56;4686244;29;19916;-87
2022/03/15 12:13:09;;;;;;;;;;;;;;;-145.06;0.00;60892.56;4671870;29;20372;-87
2022/03/15 12:15:50;;;;;;;;;;;;;;;-145.06;0.00;60892.56;4673756;29;19912;-87
2022/03/15 12:18:40;;;;;;;;;;;;;;;-145.06;0.00;60892.56;4680184;29;20033;-88
2022/03/15 12:21:25;;;;;;;;;;;;;;;-145.06;0.00;60892.56;4661678;29;19912;-88
2022/03/15 12:24:04;;;;;;;;;;;;;;;-145.06;0.00;60892.56;4674745;29;20260;-87
2022/03/15 12:26:45;;;;;;;;;;;;;;;-145.06;0.00;60892.56;4656038;29;19917;-87
2022/03/15 12:29:26;;;;;;;;;;;;;;;-145.06;0.00;60892.56;4668778;29;19916;-86
2022/03/15 12:32:13;;;;;;;;;;;;;;;-145.06;0.00;60892.56;4682762;29;19916;-87
2022/03/15 12:34:55;;;;;;;;;;;;;;;-145.06;0.00;60892.56;4671670;29;19912;-88
2022/03/15 12:37:36;;;;;;;;;;;;;;;-145.06;0.00;60892.56;4686835;29;19900;-89
2022/03/15 12:40:15;;;;;;;;;;;;;;;-145.06;0.00;60892.56;4682772;29;19975;-87
2022/03/15 12:42:58;;;;;;;;;;;;;;;-145.06;0.00;60892.56;4677753;29;19967;-87
2022/03/15 12:45:45;;;;;;;;;;;;;;;-145.06;0.00;60892.56;4666083;29;19917;-87
2022/03/15 12:48:30;;;;;;;;;;;;;;;-145.06;0.00;60892.56;4672377;29;19913;-87
2022/03/15 12:51:16;;;;;;;;;;;;;;;-145.06;0.00;60892.56;4672126;29;20536;-88
2022/03/15 12:54:03;;;;;;;;;;;;;;;-145.06;0.00;60892.56;4677573;29;20592;-88
2022/03/15 12:56:42;;;;;;;;;;;;;;;-145.06;0.00;60892.56;4673207;29;19916;-88
2022/03/15 12:59:23;;;;;;;;;;;;;;;-145.06;0.00;60892.56;4673006;29;19913;-87
2022/03/15 13:02:04;;;;;;;;;;;;;;;-145.06;0.00;60892.56;4673199;29;19912;-88
2022/03/15 13:04:43;;;;;;;;;;;;;;;-145.06;0.00;60892.56;4665641;29;19916;-88
2022/03/15 13:07:26;;;;;;;;;;;;;;;-145.06;0.00;60892.56;4677605;29;20376;-87
2022/03/15 13:10:08;;;;;;;;;;;;;;;-145.06;0.00;60892.56;4672027;29;19912;-87
2022/03/15 13:12:46;;;;;;;;;;;;;;;-145.06;0.00;60892.56;4672115;29;20268;-87
2022/03/15 13:15:26;;;;;;;;;;;;;;;-145.06;0.00;60892.56;4666835;29;19956;-88
2022/03/15 13:18:05;;;;;;;;;;;;;;;-145.06;0.00;60892.56;4669698;29;19912;-88
2022/03/15 13:20:44;;;;;;;;;;;;;;;-145.06;0.00;60892.56;4671593;29;19913;-88
2022/03/15 23:18:24;;;;;;;;;;;;;;;6.65;0.00;60892.56;4676165;29;19912;-90
2022/03/15 23:24:00;;;;;;;;;;;;;;;6.58;0.00;60892.56;4664598;29;20362;-89
2022/03/15 23:29:38;;;;;;;;;;;;;;;6.50;0.00;60892.56;4676606;29;19916;-89
2022/03/15 23:32:22;;;;;;;;;;;;;;;-145.06;0.00;60892.56;4675805;29;19920;-89
2022/03/15 23:35:01;;;;;;;;;;;;;;;-145.06;0.00;60892.56;4680772;29;20374;-89
2022/03/15 23:37:41;;;;;;;;;;;;;;;-145.06;0.00;60892.56;4662809;29;19920;-90
2022/03/15 23:40:20;;;;;;;;;;;;;;;-145.06;0.00;60892.56;4673209;29;20276;-90
2022/03/15 23:42:59;;;;;;;;;;;;;;;-145.06;0.00;60892.56;4675223;29;19916;-89
2022/03/15 23:45:38;;;;;;;;;;;;;;;-145.06;0.00;60892.56;4662379;29;19956;-90
2022/03/15 23:48:17;;;;;;;;;;;;;;;-145.06;0.00;60892.56;4666624;29;19916;-90